Aviation Digital Data Service (ADDS)

Output produced by TAFs form (1922 UTC 13 February 2016)
found at http://aviationweather.gov/adds/tafs/
 
KMAF 131721Z 1318/1418 17011G20KT P6SM FEW250 
     FM140000 18011KT P6SM FEW200